sensor_id;sensor_type;location;lat;lon;timestamp;pressure;altitude;pressure_sealevel;temperature;humidity
61906;BME280;47863;55.766;37.672;2022-09-27T00:02:20;99533.94;;;7.34;72.76
61906;BME280;47863;55.766;37.672;2022-09-27T00:04:46;99534.25;;;7.31;72.77
61906;BME280;47863;55.766;37.672;2022-09-27T00:07:11;99539.16;;;7.26;72.94
61906;BME280;47863;55.766;37.672;2022-09-27T00:09:36;99542.97;;;7.24;72.95
61906;BME280;47863;55.766;37.672;2022-09-27T00:12:02;99548.75;;;7.19;72.92
61906;BME280;47863;55.766;37.672;2022-09-27T00:14:27;99544.69;;;7.15;72.82
61906;BME280;47863;55.766;37.672;2022-09-27T00:16:53;99552.00;;;7.13;72.90
61906;BME280;47863;55.766;37.672;2022-09-27T00:19:19;99540.66;;;7.11;72.98
61906;BME280;47863;55.766;37.672;2022-09-27T00:21:46;99541.59;;;7.10;72.98
61906;BME280;47863;55.766;37.672;2022-09-27T00:24:13;99546.09;;;7.09;73.07
61906;BME280;47863;55.766;37.672;2022-09-27T00:26:39;99546.25;;;7.08;73.07
61906;BME280;47863;55.766;37.672;2022-09-27T00:29:04;99544.56;;;7.07;72.95
61906;BME280;47863;55.766;37.672;2022-09-27T00:31:30;99540.34;;;7.04;72.96
61906;BME280;47863;55.766;37.672;2022-09-27T00:33:56;99543.03;;;7.04;73.08
61906;BME280;47863;55.766;37.672;2022-09-27T00:36:22;99548.66;;;7.01;73.07
61906;BME280;47863;55.766;37.672;2022-09-27T00:38:48;99546.25;;;6.98;73.12
61906;BME280;47863;55.766;37.672;2022-09-27T00:41:15;99546.41;;;6.97;73.05
61906;BME280;47863;55.766;37.672;2022-09-27T00:43:45;99545.56;;;6.96;73.17
61906;BME280;47863;55.766;37.672;2022-09-27T00:46:11;99545.72;;;6.94;73.03
61906;BME280;47863;55.766;37.672;2022-09-27T00:48:39;99547.69;;;6.92;73.29
61906;BME280;47863;55.766;37.672;2022-09-27T00:51:05;99551.34;;;6.91;73.17
61906;BME280;47863;55.766;37.672;2022-09-27T00:53:36;99548.94;;;6.88;73.33
61906;BME280;47863;55.766;37.672;2022-09-27T00:56:08;99546.59;;;6.85;73.15
61906;BME280;47863;55.766;37.672;2022-09-27T00:58:35;99548.56;;;6.83;73.34
61906;BME280;47863;55.766;37.672;2022-09-27T01:01:02;99552.31;;;6.81;73.40
61906;BME280;47863;55.766;37.672;2022-09-27T01:03:48;99548.97;;;6.79;73.21
61906;BME280;47863;55.766;37.672;2022-09-27T01:06:15;99551.75;;;6.77;73.39
61906;BME280;47863;55.766;37.672;2022-09-27T01:08:43;99555.69;;;6.73;73.35
61906;BME280;47863;55.766;37.672;2022-09-27T01:11:24;99552.47;;;6.69;73.41
61906;BME280;47863;55.766;37.672;2022-09-27T01:13:59;99560.75;;;6.66;73.39
61906;BME280;47863;55.766;37.672;2022-09-27T01:19:16;99554.75;;;6.64;73.64
61906;BME280;47863;55.766;37.672;2022-09-27T01:22:06;99553.22;;;6.62;73.68
61906;BME280;47863;55.766;37.672;2022-09-27T01:24:51;99545.22;;;6.62;73.47
61906;BME280;47863;55.766;37.672;2022-09-27T01:27:32;99551.50;;;6.61;73.54
61906;BME280;47863;55.766;37.672;2022-09-27T01:38:16;99548.97;;;6.59;73.47
61906;BME280;47863;55.766;37.672;2022-09-27T01:43:28;99543.41;;;6.52;73.60
61906;BME280;47863;55.766;37.672;2022-09-27T01:48:50;99531.63;;;6.45;73.60
61906;BME280;47863;55.766;37.672;2022-09-27T01:51:24;99531.78;;;6.44;73.72
61906;BME280;47863;55.766;37.672;2022-09-27T01:53:53;99530.94;;;6.43;73.63
61906;BME280;47863;55.766;37.672;2022-09-27T01:56:36;99530.22;;;6.41;73.73
61906;BME280;47863;55.766;37.672;2022-09-27T01:59:04;99535.84;;;6.38;73.58
61906;BME280;47863;55.766;37.672;2022-09-27T02:01:32;99530.81;;;6.35;73.78
61906;BME280;47863;55.766;37.672;2022-09-27T02:03:59;99533.59;;;6.33;73.73
61906;BME280;47863;55.766;37.672;2022-09-27T02:06:36;99536.41;;;6.32;73.81
61906;BME280;47863;55.766;37.672;2022-09-27T02:11:39;99533.59;;;6.33;73.93
61906;BME280;47863;55.766;37.672;2022-09-27T02:14:16;99537.13;;;6.34;73.75
61906;BME280;47863;55.766;37.672;2022-09-27T02:16:50;99540.47;;;6.36;73.81
61906;BME280;47863;55.766;37.672;2022-09-27T02:19:52;99544.81;;;6.37;73.67
61906;BME280;47863;55.766;37.672;2022-09-27T02:24:47;99547.59;;;6.35;73.83
61906;BME280;47863;55.766;37.672;2022-09-27T02:27:21;99549.41;;;6.35;73.83
61906;BME280;47863;55.766;37.672;2022-09-27T02:29:53;99547.75;;;6.34;73.80
61906;BME280;47863;55.766;37.672;2022-09-27T02:32:20;99544.09;;;6.35;73.97
61906;BME280;47863;55.766;37.672;2022-09-27T02:34:45;99554.75;;;6.35;73.95
61906;BME280;47863;55.766;37.672;2022-09-27T02:37:11;99527.03;;;6.18;73.69
61906;BME280;47863;55.766;37.672;2022-09-27T02:39:36;99546.75;;;6.35;73.88
61906;BME280;47863;55.766;37.672;2022-09-27T02:42:02;99541.31;;;6.37;73.94
61906;BME280;47863;55.766;37.672;2022-09-27T02:44:29;99553.63;;;6.38;73.76
61906;BME280;47863;55.766;37.672;2022-09-27T02:53:02;99555.31;;;6.39;73.73
61906;BME280;47863;55.766;37.672;2022-09-27T02:55:18;99560.63;;;6.39;73.73
61906;BME280;47863;55.766;37.672;2022-09-27T03:00:14;99555.19;;;6.40;73.97
61906;BME280;47863;55.766;37.672;2022-09-27T03:02:48;99554.31;;;6.40;73.67
61906;BME280;47863;55.766;37.672;2022-09-27T03:05:58;99537.66;;;6.28;73.87
61906;BME280;47863;55.766;37.672;2022-09-27T03:08:03;99562.59;;;6.37;73.87
61906;BME280;47863;55.766;37.672;2022-09-27T03:10:29;99560.06;;;6.35;73.78
61906;BME280;47863;55.766;37.672;2022-09-27T03:12:55;99555.56;;;6.35;73.91
61906;BME280;47863;55.766;37.672;2022-09-27T03:15:21;99556.28;;;6.38;73.96
61906;BME280;47863;55.766;37.672;2022-09-27T03:17:46;99561.75;;;6.36;73.87
61906;BME280;47863;55.766;37.672;2022-09-27T03:20:11;99561.59;;;6.38;73.83
61906;BME280;47863;55.766;37.672;2022-09-27T03:22:37;99564.25;;;6.38;73.86
61906;BME280;47863;55.766;37.672;2022-09-27T03:25:06;99563.41;;;6.37;74.03
61906;BME280;47863;55.766;37.672;2022-09-27T03:27:31;99560.91;;;6.35;73.96
61906;BME280;47863;55.766;37.672;2022-09-27T03:29:56;99570.84;;;6.33;74.03
61906;BME280;47863;55.766;37.672;2022-09-27T03:32:23;99567.34;;;6.33;73.98
61906;BME280;47863;55.766;37.672;2022-09-27T03:34:49;99571.84;;;6.32;74.07
61906;BME280;47863;55.766;37.672;2022-09-27T03:37:14;99577.97;;;6.33;74.08
61906;BME280;47863;55.766;37.672;2022-09-27T03:39:39;99569.16;;;6.32;74.03
61906;BME280;47863;55.766;37.672;2022-09-27T03:42:05;99568.34;;;6.32;74.07
61906;BME280;47863;55.766;37.672;2022-09-27T03:44:30;99576.16;;;6.33;74.09
61906;BME280;47863;55.766;37.672;2022-09-27T03:46:57;99571.97;;;6.31;74.08
61906;BME280;47863;55.766;37.672;2022-09-27T03:49:22;99569.44;;;6.29;74.12
61906;BME280;47863;55.766;37.672;2022-09-27T03:51:48;99570.25;;;6.30;74.08
61906;BME280;47863;55.766;37.672;2022-09-27T03:54:13;99571.00;;;6.32;74.06
61906;BME280;47863;55.766;37.672;2022-09-27T03:56:39;99573.66;;;6.32;74.11
61906;BME280;47863;55.766;37.672;2022-09-27T03:59:04;99571.69;;;6.34;73.97
61906;BME280;47863;55.766;37.672;2022-09-27T04:01:29;99572.53;;;6.34;74.18
61906;BME280;47863;55.766;37.672;2022-09-27T04:03:55;99577.41;;;6.39;73.98
61906;BME280;47863;55.766;37.672;2022-09-27T04:06:20;99579.53;;;6.45;74.02
61906;BME280;47863;55.766;37.672;2022-09-27T04:08:47;99585.97;;;6.52;73.86
61906;BME280;47863;55.766;37.672;2022-09-27T04:11:12;99577.44;;;6.59;73.86
61906;BME280;47863;55.766;37.672;2022-09-27T04:13:39;99584.84;;;6.65;73.82
61906;BME280;47863;55.766;37.672;2022-09-27T04:16:05;99582.63;;;6.70;73.68
61906;BME280;47863;55.766;37.672;2022-09-27T04:18:30;99587.38;;;6.76;73.70
61906;BME280;47863;55.766;37.672;2022-09-27T04:20:55;99577.66;;;6.94;73.46
61906;BME280;47863;55.766;37.672;2022-09-27T04:23:21;99580.97;;;7.16;73.22
61906;BME280;47863;55.766;37.672;2022-09-27T04:25:47;99580.09;;;7.35;73.24
61906;BME280;47863;55.766;37.672;2022-09-27T04:28:12;99582.84;;;7.53;73.01
61906;BME280;47863;55.766;37.672;2022-09-27T04:30:37;99579.38;;;7.70;72.90
61906;BME280;47863;55.766;37.672;2022-09-27T04:33:03;99576.38;;;7.83;73.13
61906;BME280;47863;55.766;37.672;2022-09-27T04:35:28;99579.44;;;7.88;73.19
61906;BME280;47863;55.766;37.672;2022-09-27T04:38:12;99583.47;;;7.92;73.21
61906;BME280;47863;55.766;37.672;2022-09-27T04:40:38;99584.44;;;7.91;73.43
61906;BME280;47863;55.766;37.672;2022-09-27T04:43:04;99584.63;;;7.90;73.41
61906;BME280;47863;55.766;37.672;2022-09-27T04:45:29;99581.41;;;7.86;73.61
61906;BME280;47863;55.766;37.672;2022-09-27T04:47:54;99578.88;;;7.85;73.60
61906;BME280;47863;55.766;37.672;2022-09-27T04:50:20;99590.38;;;7.85;73.54
61906;BME280;47863;55.766;37.672;2022-09-27T04:52:51;99586.06;;;7.84;73.78
61906;BME280;47863;55.766;37.672;2022-09-27T04:55:18;99585.06;;;7.85;73.64
61906;BME280;47863;55.766;37.672;2022-09-27T04:57:43;99589.66;;;7.93;73.52
61906;BME280;47863;55.766;37.672;2022-09-27T05:00:09;99585.50;;;8.08;73.52
61906;BME280;47863;55.766;37.672;2022-09-27T05:02:34;99597.41;;;8.32;73.68
61906;BME280;47863;55.766;37.672;2022-09-27T05:04:59;99600.72;;;8.62;73.10
61906;BME280;47863;55.766;37.672;2022-09-27T05:07:25;99593.00;;;8.95;73.13
61906;BME280;47863;55.766;37.672;2022-09-27T05:09:51;99595.53;;;9.22;72.84
61906;BME280;47863;55.766;37.672;2022-09-27T05:12:17;99559.94;;;9.22;72.75
61906;BME280;47863;55.766;37.672;2022-09-27T05:14:42;99588.69;;;9.54;72.72
61906;BME280;47863;55.766;37.672;2022-09-27T05:17:07;99595.66;;;9.81;72.29
61906;BME280;47863;55.766;37.672;2022-09-27T05:19:34;99589.25;;;10.17;72.27
61906;BME280;47863;55.766;37.672;2022-09-27T05:21:59;99593.19;;;10.39;71.95
61906;BME280;47863;55.766;37.672;2022-09-27T05:24:24;99590.69;;;10.45;71.94
61906;BME280;47863;55.766;37.672;2022-09-27T05:26:52;99590.03;;;10.51;72.00
61906;BME280;47863;55.766;37.672;2022-09-27T05:29:18;99584.66;;;10.60;72.01
61906;BME280;47863;55.766;37.672;2022-09-27T05:31:43;99588.69;;;10.72;72.18
61906;BME280;47863;55.766;37.672;2022-09-27T05:34:08;99593.56;;;10.85;72.57
61906;BME280;47863;55.766;37.672;2022-09-27T05:36:36;99587.34;;;11.01;72.42
61906;BME280;47863;55.766;37.672;2022-09-27T05:39:01;99590.69;;;11.11;72.79
61906;BME280;47863;55.766;37.672;2022-09-27T05:41:27;99582.97;;;11.24;72.50
61906;BME280;47863;55.766;37.672;2022-09-27T05:43:52;99583.28;;;11.38;72.49
61906;BME280;47863;55.766;37.672;2022-09-27T05:46:18;99582.91;;;11.49;72.12
61906;BME280;47863;55.766;37.672;2022-09-27T05:48:43;99581.69;;;11.60;72.17
61906;BME280;47863;55.766;37.672;2022-09-27T05:51:08;99583.66;;;11.74;72.25
61906;BME280;47863;55.766;37.672;2022-09-27T05:53:34;99575.06;;;11.87;72.32
61906;BME280;47863;55.766;37.672;2022-09-27T05:56:01;99575.06;;;11.95;72.47
61906;BME280;47863;55.766;37.672;2022-09-27T05:58:27;99574.88;;;11.97;70.68
61906;BME280;47863;55.766;37.672;2022-09-27T06:00:52;99570.63;;;12.02;72.10
61906;BME280;47863;55.766;37.672;2022-09-27T06:03:18;99572.38;;;12.26;72.21
61906;BME280;47863;55.766;37.672;2022-09-27T06:05:43;99571.47;;;12.57;72.14
61906;BME280;47863;55.766;37.672;2022-09-27T06:08:09;99571.38;;;12.88;71.65
61906;BME280;47863;55.766;37.672;2022-09-27T06:10:36;99563.13;;;13.28;72.15
61906;BME280;47863;55.766;37.672;2022-09-27T06:13:02;99564.25;;;13.78;71.97
61906;BME280;47863;55.766;37.672;2022-09-27T06:15:29;99564.78;;;14.40;69.62
61906;BME280;47863;55.766;37.672;2022-09-27T06:17:55;99564.53;;;14.78;71.29
61906;BME280;47863;55.766;37.672;2022-09-27T06:20:20;99567.41;;;14.98;71.35
61906;BME280;47863;55.766;37.672;2022-09-27T06:22:46;99560.75;;;15.57;71.45
61906;BME280;47863;55.766;37.672;2022-09-27T06:25:12;99559.97;;;16.11;71.00
61906;BME280;47863;55.766;37.672;2022-09-27T06:27:37;99566.44;;;16.17;70.28
61906;BME280;47863;55.766;37.672;2022-09-27T06:30:03;99558.56;;;16.22;70.26
61906;BME280;47863;55.766;37.672;2022-09-27T06:32:28;99564.06;;;16.75;70.85
61906;BME280;47863;55.766;37.672;2022-09-27T06:34:54;99565.72;;;17.43;70.69
61906;BME280;47863;55.766;37.672;2022-09-27T06:37:19;99558.53;;;17.82;60.77
61906;BME280;47863;55.766;37.672;2022-09-27T06:39:44;99563.47;;;17.98;63.55
61906;BME280;47863;55.766;37.672;2022-09-27T06:42:13;99556.81;;;18.01;66.52
61906;BME280;47863;55.766;37.672;2022-09-27T06:44:38;99558.06;;;18.05;65.80
61906;BME280;47863;55.766;37.672;2022-09-27T06:47:03;99550.28;;;18.09;65.43
61906;BME280;47863;55.766;37.672;2022-09-27T06:49:29;99546.97;;;18.07;65.01
61906;BME280;47863;55.766;37.672;2022-09-27T06:51:55;99550.06;;;18.17;65.72
61906;BME280;47863;55.766;37.672;2022-09-27T06:54:21;99540.09;;;18.74;61.68
61906;BME280;47863;55.766;37.672;2022-09-27T06:56:49;99549.09;;;19.62;62.88
61906;BME280;47863;55.766;37.672;2022-09-27T06:59:14;99552.22;;;20.33;59.78
61906;BME280;47863;55.766;37.672;2022-09-27T07:02:06;99550.91;;;21.19;62.05
61906;BME280;47863;55.766;37.672;2022-09-27T07:04:31;99554.19;;;21.81;64.02
61906;BME280;47863;55.766;37.672;2022-09-27T07:06:57;99551.31;;;22.56;57.81
61906;BME280;47863;55.766;37.672;2022-09-27T07:09:22;99555.31;;;23.00;60.82
61906;BME280;47863;55.766;37.672;2022-09-27T07:11:47;99559.31;;;22.46;56.29
61906;BME280;47863;55.766;37.672;2022-09-27T07:14:13;99559.19;;;21.48;52.66
61906;BME280;47863;55.766;37.672;2022-09-27T07:16:38;99561.78;;;20.54;52.07
61906;BME280;47863;55.766;37.672;2022-09-27T07:19:03;99565.22;;;20.00;59.58
61906;BME280;47863;55.766;37.672;2022-09-27T07:21:31;99565.50;;;20.41;62.76
61906;BME280;47863;55.766;37.672;2022-09-27T07:23:57;99567.34;;;21.72;60.05
61906;BME280;47863;55.766;37.672;2022-09-27T07:26:22;99560.25;;;22.69;56.08
61906;BME280;47863;55.766;37.672;2022-09-27T07:28:47;99560.13;;;23.65;57.15
61906;BME280;47863;55.766;37.672;2022-09-27T07:31:13;99565.44;;;24.98;51.90
61906;BME280;47863;55.766;37.672;2022-09-27T07:33:38;99553.03;;;26.33;50.29
61906;BME280;47863;55.766;37.672;2022-09-27T07:36:07;99561.09;;;26.65;51.27
61906;BME280;47863;55.766;37.672;2022-09-27T07:38:32;99562.19;;;26.59;46.98
61906;BME280;47863;55.766;37.672;2022-09-27T07:41:03;99549.00;;;27.18;31.07
61906;BME280;47863;55.766;37.672;2022-09-27T07:43:29;99548.47;;;28.12;38.26
61906;BME280;47863;55.766;37.672;2022-09-27T07:45:55;99556.22;;;29.28;46.71
61906;BME280;47863;55.766;37.672;2022-09-27T07:48:20;99557.13;;;30.39;35.23
61906;BME280;47863;55.766;37.672;2022-09-27T07:50:45;99556.13;;;31.52;33.59
61906;BME280;47863;55.766;37.672;2022-09-27T07:53:11;99551.50;;;32.53;37.49
61906;BME280;47863;55.766;37.672;2022-09-27T07:55:38;99554.63;;;33.19;35.77
61906;BME280;47863;55.766;37.672;2022-09-27T07:58:07;99557.88;;;33.53;26.70
61906;BME280;47863;55.766;37.672;2022-09-27T08:00:33;99554.97;;;33.98;36.23
61906;BME280;47863;55.766;37.672;2022-09-27T08:03:03;99547.88;;;34.49;39.69
61906;BME280;47863;55.766;37.672;2022-09-27T08:05:28;99559.13;;;35.14;32.24
61906;BME280;47863;55.766;37.672;2022-09-27T08:07:54;99554.81;;;35.81;32.65
61906;BME280;47863;55.766;37.672;2022-09-27T08:10:20;99564.03;;;36.32;45.17
61906;BME280;47863;55.766;37.672;2022-09-27T08:12:46;99548.25;;;36.37;22.92
61906;BME280;47863;55.766;37.672;2022-09-27T08:15:11;99549.53;;;36.39;19.09
61906;BME280;47863;55.766;37.672;2022-09-27T08:17:37;99551.91;;;36.49;25.23
61906;BME280;47863;55.766;37.672;2022-09-27T08:20:02;99560.91;;;36.76;21.55
61906;BME280;47863;55.766;37.672;2022-09-27T08:22:30;99557.75;;;36.65;29.40
61906;BME280;47863;55.766;37.672;2022-09-27T08:24:56;99555.38;;;35.10;21.13
61906;BME280;47863;55.766;37.672;2022-09-27T08:27:21;99543.50;;;33.82;19.59
61906;BME280;47863;55.766;37.672;2022-09-27T08:29:47;99549.41;;;33.49;29.10
61906;BME280;47863;55.766;37.672;2022-09-27T08:32:13;99546.28;;;33.51;29.93
61906;BME280;47863;55.766;37.672;2022-09-27T08:34:38;99543.78;;;34.21;32.50
61906;BME280;47863;55.766;37.672;2022-09-27T08:37:04;99540.47;;;35.23;26.43
61906;BME280;47863;55.766;37.672;2022-09-27T08:39:29;99539.03;;;36.15;25.47
61906;BME280;47863;55.766;37.672;2022-09-27T08:44:28;99539.22;;;37.27;24.41
61906;BME280;47863;55.766;37.672;2022-09-27T08:52:24;99549.06;;;38.88;31.79
61906;BME280;47863;55.766;37.672;2022-09-27T08:54:51;99550.56;;;37.10;41.86
61906;BME280;47863;55.766;37.672;2022-09-27T08:57:17;99540.19;;;34.29;35.68
61906;BME280;47863;55.766;37.672;2022-09-27T08:59:49;99539.28;;;32.99;40.57
61906;BME280;47863;55.766;37.672;2022-09-27T09:02:17;99545.63;;;32.91;33.42
61906;BME280;47863;55.766;37.672;2022-09-27T09:04:43;99533.19;;;33.11;24.17
61906;BME280;47863;55.766;37.672;2022-09-27T09:12:59;99544.53;;;30.84;27.49
61906;BME280;47863;55.766;37.672;2022-09-27T09:18:25;99542.41;;;27.03;34.69
61906;BME280;47863;55.766;37.672;2022-09-27T09:26:04;99545.53;;;23.99;45.13
61906;BME280;47863;55.766;37.672;2022-09-27T09:31:39;99542.69;;;22.65;49.04
61906;BME280;47863;55.766;37.672;2022-09-27T09:34:11;99537.09;;;21.85;42.10
61906;BME280;47863;55.766;37.672;2022-09-27T09:36:44;99535.97;;;21.34;51.98
61906;BME280;47863;55.766;37.672;2022-09-27T09:44:06;99544.31;;;20.73;47.86
61906;BME280;47863;55.766;37.672;2022-09-27T09:46:41;99532.94;;;20.65;47.13
61906;BME280;47863;55.766;37.672;2022-09-27T09:49:21;99538.81;;;20.92;46.69
61906;BME280;47863;55.766;37.672;2022-09-27T09:51:50;99532.53;;;20.91;47.30
61906;BME280;47863;55.766;37.672;2022-09-27T09:56:49;99545.16;;;22.21;48.08
61906;BME280;47863;55.766;37.672;2022-09-27T09:59:27;99534.25;;;23.51;43.00
61906;BME280;47863;55.766;37.672;2022-09-27T10:01:55;99538.66;;;24.45;43.39
61906;BME280;47863;55.766;37.672;2022-09-27T10:04:25;99531.16;;;25.27;43.01
61906;BME280;47863;55.766;37.672;2022-09-27T10:06:52;99535.81;;;26.58;38.61
61906;BME280;47863;55.766;37.672;2022-09-27T10:09:20;99533.00;;;27.56;41.26
61906;BME280;47863;55.766;37.672;2022-09-27T10:11:46;99538.28;;;27.32;29.27
61906;BME280;47863;55.766;37.672;2022-09-27T10:14:16;99529.78;;;26.87;41.66
61906;BME280;47863;55.766;37.672;2022-09-27T10:16:42;99532.91;;;26.02;43.91
61906;BME280;47863;55.766;37.672;2022-09-27T10:19:11;99528.47;;;24.68;39.34
61906;BME280;47863;55.766;37.672;2022-09-27T10:21:39;99528.97;;;23.44;39.64
61906;BME280;47863;55.766;37.672;2022-09-27T10:24:13;99525.56;;;22.35;35.31
61906;BME280;47863;55.766;37.672;2022-09-27T10:26:39;99524.28;;;21.86;38.64
61906;BME280;47863;55.766;37.672;2022-09-27T10:31:45;99522.00;;;22.23;44.64
61906;BME280;47863;55.766;37.672;2022-09-27T10:34:31;99515.22;;;21.68;42.04
61906;BME280;47863;55.766;37.672;2022-09-27T10:37:01;99516.53;;;20.95;44.42
61906;BME280;47863;55.766;37.672;2022-09-27T10:39:27;99516.34;;;20.54;46.33
61906;BME280;47863;55.766;37.672;2022-09-27T10:41:53;99517.00;;;20.68;44.93
61906;BME280;47863;55.766;37.672;2022-09-27T10:46:44;99509.41;;;20.28;44.31
61906;BME280;47863;55.766;37.672;2022-09-27T10:51:36;99502.19;;;19.73;46.46
61906;BME280;47863;55.766;37.672;2022-09-27T10:54:02;99503.63;;;19.57;44.00
61906;BME280;47863;55.766;37.672;2022-09-27T10:56:32;99505.84;;;19.60;42.02
61906;BME280;47863;55.766;37.672;2022-09-27T10:58:57;99507.16;;;19.39;41.76
61906;BME280;47863;55.766;37.672;2022-09-27T11:01:48;99510.34;;;19.11;44.73
61906;BME280;47863;55.766;37.672;2022-09-27T11:04:18;99508.59;;;18.73;45.69
61906;BME280;47863;55.766;37.672;2022-09-27T11:06:45;99501.00;;;18.57;47.15
61906;BME280;47863;55.766;37.672;2022-09-27T11:09:18;99499.41;;;18.74;45.49
61906;BME280;47863;55.766;37.672;2022-09-27T11:11:44;99499.16;;;18.76;43.64
61906;BME280;47863;55.766;37.672;2022-09-27T11:14:22;99495.09;;;19.54;46.10
61906;BME280;47863;55.766;37.672;2022-09-27T11:22:27;99495.47;;;21.90;41.79
61906;BME280;47863;55.766;37.672;2022-09-27T11:52:34;99473.03;;;22.96;42.04
61906;BME280;47863;55.766;37.672;2022-09-27T11:57:42;99464.81;;;20.95;42.66
61906;BME280;47863;55.766;37.672;2022-09-27T12:02:43;99462.03;;;20.06;38.83
61906;BME280;47863;55.766;37.672;2022-09-27T12:07:49;99463.78;;;22.01;45.59
61906;BME280;47863;55.766;37.672;2022-09-27T12:10:18;99470.06;;;22.81;44.16
61906;BME280;47863;55.766;37.672;2022-09-27T12:12:49;99459.09;;;23.53;33.75
61906;BME280;47863;55.766;37.672;2022-09-27T12:15:23;99460.09;;;23.69;37.60
61906;BME280;47863;55.766;37.672;2022-09-27T12:17:52;99450.19;;;23.85;34.57
61906;BME280;47863;55.766;37.672;2022-09-27T12:20:23;99445.28;;;24.42;39.12
61906;BME280;47863;55.766;37.672;2022-09-27T12:23:00;99445.56;;;25.20;34.33
61906;BME280;47863;55.766;37.672;2022-09-27T12:25:30;99439.88;;;25.95;33.02
61906;BME280;47863;55.766;37.672;2022-09-27T12:28:03;99437.44;;;26.55;35.42
61906;BME280;47863;55.766;37.672;2022-09-27T12:30:31;99433.81;;;27.11;33.89
61906;BME280;47863;55.766;37.672;2022-09-27T12:33:06;99421.88;;;27.52;35.45
61906;BME280;47863;55.766;37.672;2022-09-27T12:35:35;99424.19;;;27.84;29.06
61906;BME280;47863;55.766;37.672;2022-09-27T12:38:08;99427.06;;;28.08;29.56
61906;BME280;47863;55.766;37.672;2022-09-27T12:40:38;99426.94;;;28.28;29.25
61906;BME280;47863;55.766;37.672;2022-09-27T12:43:20;99429.34;;;28.40;34.55
61906;BME280;47863;55.766;37.672;2022-09-27T12:53:39;99417.19;;;27.57;25.49
61906;BME280;47863;55.766;37.672;2022-09-27T12:58:50;99412.66;;;27.01;26.38
61906;BME280;47863;55.766;37.672;2022-09-27T13:01:24;99419.03;;;26.30;26.61
61906;BME280;47863;55.766;37.672;2022-09-27T13:04:26;99416.22;;;25.16;35.35
61906;BME280;47863;55.766;37.672;2022-09-27T13:11:42;99409.38;;;21.13;34.25
61906;BME280;47863;55.766;37.672;2022-09-27T13:14:19;99407.44;;;20.07;45.76
61906;BME280;47863;55.766;37.672;2022-09-27T13:16:47;99414.22;;;19.00;44.67
61906;BME280;47863;55.766;37.672;2022-09-27T13:21:57;99414.75;;;17.38;41.85
61906;BME280;47863;55.766;37.672;2022-09-27T13:29:51;99412.03;;;16.33;43.97
61906;BME280;47863;55.766;37.672;2022-09-27T13:32:22;99408.25;;;16.21;45.07
61906;BME280;47863;55.766;37.672;2022-09-27T13:34:50;99398.47;;;16.06;43.25
61906;BME280;47863;55.766;37.672;2022-09-27T13:38:00;99407.19;;;15.95;44.97
61906;BME280;47863;55.766;37.672;2022-09-27T13:43:27;99400.41;;;15.51;43.01
61906;BME280;47863;55.766;37.672;2022-09-27T13:45:26;99401.59;;;15.29;45.10
61906;BME280;47863;55.766;37.672;2022-09-27T13:47:53;99405.22;;;15.07;45.01
61906;BME280;47863;55.766;37.672;2022-09-27T13:55:40;99401.28;;;14.47;47.32
61906;BME280;47863;55.766;37.672;2022-09-27T14:00:38;99401.41;;;14.11;47.51
61906;BME280;47863;55.766;37.672;2022-09-27T14:05:46;99406.91;;;13.81;47.18
61906;BME280;47863;55.766;37.672;2022-09-27T14:08:35;99391.25;;;13.69;47.22
61906;BME280;47863;55.766;37.672;2022-09-27T14:10:58;99391.56;;;13.60;47.73
61906;BME280;47863;55.766;37.672;2022-09-27T14:13:24;99391.69;;;13.52;47.74
61906;BME280;47863;55.766;37.672;2022-09-27T14:15:51;99401.34;;;13.46;48.63
61906;BME280;47863;55.766;37.672;2022-09-27T14:18:18;99398.78;;;13.38;48.00
61906;BME280;47863;55.766;37.672;2022-09-27T14:20:44;99395.81;;;13.33;47.89
61906;BME280;47863;55.766;37.672;2022-09-27T14:23:19;99400.53;;;13.31;48.25
61906;BME280;47863;55.766;37.672;2022-09-27T14:25:47;99400.34;;;13.32;49.06
61906;BME280;47863;55.766;37.672;2022-09-27T14:28:23;99395.69;;;13.26;48.58
61906;BME280;47863;55.766;37.672;2022-09-27T14:31:03;99385.78;;;13.26;49.23
61906;BME280;47863;55.766;37.672;2022-09-27T14:33:30;99395.16;;;13.16;48.96
61906;BME280;47863;55.766;37.672;2022-09-27T14:35:55;99393.03;;;13.11;48.70
61906;BME280;47863;55.766;37.672;2022-09-27T14:38:39;99386.34;;;13.07;49.33
61906;BME280;47863;55.766;37.672;2022-09-27T14:41:06;99392.13;;;13.04;50.26
61906;BME280;47863;55.766;37.672;2022-09-27T14:43:32;99397.03;;;13.00;49.50
61906;BME280;47863;55.766;37.672;2022-09-27T14:46:00;99394.69;;;12.97;49.60
61906;BME280;47863;55.766;37.672;2022-09-27T14:48:32;99387.84;;;12.95;49.35
61906;BME280;47863;55.766;37.672;2022-09-27T14:50:59;99398.13;;;12.91;49.45
61906;BME280;47863;55.766;37.672;2022-09-27T14:53:27;99401.56;;;12.85;49.40
61906;BME280;47863;55.766;37.672;2022-09-27T14:55:54;99391.22;;;12.82;49.66
61906;BME280;47863;55.766;37.672;2022-09-27T14:58:20;99381.00;;;12.77;49.74
61906;BME280;47863;55.766;37.672;2022-09-27T15:00:50;99388.78;;;12.72;49.59
61906;BME280;47863;55.766;37.672;2022-09-27T15:03:22;99393.22;;;12.65;49.78
61906;BME280;47863;55.766;37.672;2022-09-27T15:05:49;99383.56;;;12.56;49.51
61906;BME280;47863;55.766;37.672;2022-09-27T15:08:14;99379.16;;;12.48;49.93
61906;BME280;47863;55.766;37.672;2022-09-27T15:10:41;99376.16;;;12.43;49.98
61906;BME280;47863;55.766;37.672;2022-09-27T15:13:06;99374.22;;;12.37;50.89
61906;BME280;47863;55.766;37.672;2022-09-27T15:15:37;99377.63;;;12.30;51.41
61906;BME280;47863;55.766;37.672;2022-09-27T15:18:27;99370.50;;;12.23;50.86
61906;BME280;47863;55.766;37.672;2022-09-27T15:20:52;99375.94;;;12.15;50.55
61906;BME280;47863;55.766;37.672;2022-09-27T15:23:28;99370.25;;;12.09;52.74
61906;BME280;47863;55.766;37.672;2022-09-27T15:25:59;99364.41;;;12.06;50.79
61906;BME280;47863;55.766;37.672;2022-09-27T15:28:27;99372.38;;;11.99;50.59